Donna Rushing — WDB9961 — position and weather

sailwx.info

Track history (hours):
 
Tides and Currents Weather Stations Pressure Air Temp Water Temp Dewpoint Dewpoint Depression Visibility Wind Speed Wind Dir Waves Ship Positions

Donna Rushing

Owner: AEP River Operations LLC, Chesterfield, MO. More information available from US FCC via Universal Licensing System and Coast Guard Vessel Documentation Center.

Last reported at 2015-May-21 15:14 UTC. Time now 2015-Aug-02 14:23 UTC.
Position N 39°06' W 084°50'.
Warning: this ship's position is months out of date.

Length 46 m.

Type: Towing. MMSI: 366985720.

Date/timePositionNaut miles runAvg speedWind from/ knotsBaromVisibWave heightAir tempDewpointWater temp
2015-May-21 15:14N 39°06' W 084°50'3 5.0
2015-May-21 14:33N 39°08' W 084°47'4 3.7
2015-May-21 13:33N 39°07' W 084°42'1 0.9
2015-May-21 12:33N 39°06' W 084°41'0 0.0
2015-May-21 11:32N 39°06' W 084°41'0 0.0
2015-May-21 10:33N 39°06' W 084°41'0 0.0
2015-May-21 09:33N 39°06' W 084°41'0 0.0
2015-May-21 08:32N 39°06' W 084°41'0 0.0
2015-May-21 07:32N 39°06' W 084°41'0 0.2
2015-May-21 06:32N 39°06' W 084°41'5 4.9
2015-May-21 05:33N 39°05' W 084°35'5 4.9
2015-May-21 04:33N 39°07' W 084°29'4 4.0
2015-May-21 03:33N 39°04' W 084°26'3 2.5
2015-May-21 02:33N 39°02' W 084°23'0 0.0
2015-May-21 01:32N 39°02' W 084°23'0 0.0
2015-May-21 00:32N 39°02' W 084°23'0 0.0
2015-May-20 23:32N 39°02' W 084°23'0 0.0
2015-May-20 22:32N 39°02' W 084°23'4 4.1
2015-May-20 21:33N 39°01' W 084°19'6 6.0
2015-May-20 20:33N 38°55' W 084°15'5 3.3
2015-May-20 19:12N 38°51' W 084°14'0 0.2
2015-May-20 18:33N 38°51' W 084°14'0 0.4
2015-May-20 17:22N 38°51' W 084°14'3 3.5
2015-May-20 16:33N 38°54' W 084°15'5 5.4
2015-May-20 15:33N 38°59' W 084°18'5 5.5
2015-May-20 14:33N 39°03' W 084°23'5 4.9
2015-May-20 13:33N 39°07' W 084°27'4 4.4
2015-May-20 12:33N 39°06' W 084°32'5 4.6
2015-May-20 11:33N 39°05' W 084°38'2 1.8
2015-May-20 10:33N 39°06' W 084°40'0 0.0
2015-May-20 09:32N 39°06' W 084°40'1 1.1
2015-May-20 08:33N 39°06' W 084°41'2 2.0
2015-May-20 07:32N 39°08' W 084°43'  
Track history (hours):
 
Tides and Currents Weather Stations Pressure Air Temp Water Temp Dewpoint Dewpoint Depression Visibility Wind Speed Wind Dir Waves Ship Positions

Donna Rushing

Owner: AEP River Operations LLC, Chesterfield, MO. More information available from US FCC via Universal Licensing System and Coast Guard Vessel Documentation Center.

Last reported at 2015-May-21 15:14 UTC. Time now 2015-Aug-02 14:23 UTC.
Position N 39°06' W 084°50'.
Warning: this ship's position is months out of date.

Length 46 m.

Type: Towing. MMSI: 366985720.

Date/timePositionNaut miles runAvg speedWind from/ knotsBaromVisibWave heightAir tempDewpointWater temp
2015-May-21 15:14N 39°06' W 084°50'3 5.0
2015-May-21 14:33N 39°08' W 084°47'4 3.7
2015-May-21 13:33N 39°07' W 084°42'1 0.9
2015-May-21 12:33N 39°06' W 084°41'0 0.0
2015-May-21 11:32N 39°06' W 084°41'0 0.0
2015-May-21 10:33N 39°06' W 084°41'0 0.0
2015-May-21 09:33N 39°06' W 084°41'0 0.0
2015-May-21 08:32N 39°06' W 084°41'0 0.0
2015-May-21 07:32N 39°06' W 084°41'0 0.2
2015-May-21 06:32N 39°06' W 084°41'5 4.9
2015-May-21 05:33N 39°05' W 084°35'5 4.9
2015-May-21 04:33N 39°07' W 084°29'4 4.0
2015-May-21 03:33N 39°04' W 084°26'3 2.5
2015-May-21 02:33N 39°02' W 084°23'0 0.0
2015-May-21 01:32N 39°02' W 084°23'0 0.0
2015-May-21 00:32N 39°02' W 084°23'0 0.0
2015-May-20 23:32N 39°02' W 084°23'0 0.0
2015-May-20 22:32N 39°02' W 084°23'4 4.1
2015-May-20 21:33N 39°01' W 084°19'6 6.0
2015-May-20 20:33N 38°55' W 084°15'5 3.3
2015-May-20 19:12N 38°51' W 084°14'0 0.2
2015-May-20 18:33N 38°51' W 084°14'0 0.4
2015-May-20 17:22N 38°51' W 084°14'3 3.5
2015-May-20 16:33N 38°54' W 084°15'5 5.4
2015-May-20 15:33N 38°59' W 084°18'5 5.5
2015-May-20 14:33N 39°03' W 084°23'5 4.9
2015-May-20 13:33N 39°07' W 084°27'4 4.4
2015-May-20 12:33N 39°06' W 084°32'5 4.6
2015-May-20 11:33N 39°05' W 084°38'2 1.8
2015-May-20 10:33N 39°06' W 084°40'0 0.0
2015-May-20 09:32N 39°06' W 084°40'1 1.1
2015-May-20 08:33N 39°06' W 084°41'2 2.0
2015-May-20 07:32N 39°08' W 084°43'  

Dump ship's entire track history